sensor_id;sensor_type;location;lat;lon;timestamp;temperature;humidity
75621;DHT22;64574;48.506;-2.750;2023-10-08T00:03:21;17.00;65.70
75621;DHT22;64574;48.506;-2.750;2023-10-08T00:05:47;17.00;65.60
75621;DHT22;64574;48.506;-2.750;2023-10-08T00:08:14;17.00;65.70
75621;DHT22;64574;48.506;-2.750;2023-10-08T00:10:42;16.90;65.80
75621;DHT22;64574;48.506;-2.750;2023-10-08T00:13:09;17.00;65.90
75621;DHT22;64574;48.506;-2.750;2023-10-08T00:15:39;16.90;65.80
75621;DHT22;64574;48.506;-2.750;2023-10-08T00:18:18;16.90;65.80
75621;DHT22;64574;48.506;-2.750;2023-10-08T00:20:44;16.90;65.90
75621;DHT22;64574;48.506;-2.750;2023-10-08T00:23:33;16.90;65.70
75621;DHT22;64574;48.506;-2.750;2023-10-08T00:26:01;16.90;65.60
75621;DHT22;64574;48.506;-2.750;2023-10-08T00:28:30;17.00;65.50
75621;DHT22;64574;48.506;-2.750;2023-10-08T00:30:57;17.00;65.40
75621;DHT22;64574;48.506;-2.750;2023-10-08T00:33:23;17.00;65.40
75621;DHT22;64574;48.506;-2.750;2023-10-08T00:35:49;17.00;65.30
75621;DHT22;64574;48.506;-2.750;2023-10-08T00:38:15;17.00;65.30
75621;DHT22;64574;48.506;-2.750;2023-10-08T00:40:43;17.00;65.40
75621;DHT22;64574;48.506;-2.750;2023-10-08T00:43:33;17.00;65.20
75621;DHT22;64574;48.506;-2.750;2023-10-08T00:46:01;17.00;65.20
75621;DHT22;64574;48.506;-2.750;2023-10-08T00:48:27;17.00;65.30
75621;DHT22;64574;48.506;-2.750;2023-10-08T00:50:57;17.00;65.30
75621;DHT22;64574;48.506;-2.750;2023-10-08T00:54:00;16.90;65.50
75621;DHT22;64574;48.506;-2.750;2023-10-08T00:56:32;16.80;65.70
75621;DHT22;64574;48.506;-2.750;2023-10-08T00:59:18;16.80;66.10
75621;DHT22;64574;48.506;-2.750;2023-10-08T01:01:47;16.80;66.10
75621;DHT22;64574;48.506;-2.750;2023-10-08T01:04:25;16.80;65.90
75621;DHT22;64574;48.506;-2.750;2023-10-08T01:07:01;16.80;65.90
75621;DHT22;64574;48.506;-2.750;2023-10-08T01:09:35;16.80;65.90
75621;DHT22;64574;48.506;-2.750;2023-10-08T01:12:15;16.70;66.10
75621;DHT22;64574;48.506;-2.750;2023-10-08T01:14:50;16.70;66.30
75621;DHT22;64574;48.506;-2.750;2023-10-08T01:17:22;16.60;66.40
75621;DHT22;64574;48.506;-2.750;2023-10-08T01:19:53;16.60;66.50
75621;DHT22;64574;48.506;-2.750;2023-10-08T01:22:34;16.60;66.60
75621;DHT22;64574;48.506;-2.750;2023-10-08T01:25:00;16.60;66.50
75621;DHT22;64574;48.506;-2.750;2023-10-08T01:27:30;16.60;66.40
75621;DHT22;64574;48.506;-2.750;2023-10-08T01:30:00;16.60;66.20
75621;DHT22;64574;48.506;-2.750;2023-10-08T01:32:43;16.60;66.50
75621;DHT22;64574;48.506;-2.750;2023-10-08T01:35:09;16.60;66.30
75621;DHT22;64574;48.506;-2.750;2023-10-08T01:37:51;16.60;66.20
75621;DHT22;64574;48.506;-2.750;2023-10-08T01:40:18;16.60;66.20
75621;DHT22;64574;48.506;-2.750;2023-10-08T01:42:44;16.70;66.10
75621;DHT22;64574;48.506;-2.750;2023-10-08T01:45:10;16.60;66.10
75621;DHT22;64574;48.506;-2.750;2023-10-08T01:47:38;16.60;65.90
75621;DHT22;64574;48.506;-2.750;2023-10-08T01:50:04;16.60;66.00
75621;DHT22;64574;48.506;-2.750;2023-10-08T01:52:49;16.50;66.00
75621;DHT22;64574;48.506;-2.750;2023-10-08T01:55:17;16.60;65.90
75621;DHT22;64574;48.506;-2.750;2023-10-08T01:57:48;16.60;65.70
75621;DHT22;64574;48.506;-2.750;2023-10-08T02:00:14;16.60;65.70
75621;DHT22;64574;48.506;-2.750;2023-10-08T02:02:49;16.50;65.80
75621;DHT22;64574;48.506;-2.750;2023-10-08T02:05:19;16.50;65.80
75621;DHT22;64574;48.506;-2.750;2023-10-08T02:07:45;16.40;66.10
75621;DHT22;64574;48.506;-2.750;2023-10-08T02:10:11;16.40;66.40
75621;DHT22;64574;48.506;-2.750;2023-10-08T02:12:42;16.20;66.60
75621;DHT22;64574;48.506;-2.750;2023-10-08T02:15:08;16.10;66.90
75621;DHT22;64574;48.506;-2.750;2023-10-08T02:17:37;15.90;67.70
75621;DHT22;64574;48.506;-2.750;2023-10-08T02:20:04;16.00;67.40
75621;DHT22;64574;48.506;-2.750;2023-10-08T02:22:31;16.00;67.40
75621;DHT22;64574;48.506;-2.750;2023-10-08T02:24:58;15.90;67.60
75621;DHT22;64574;48.506;-2.750;2023-10-08T02:27:27;15.90;67.40
75621;DHT22;64574;48.506;-2.750;2023-10-08T02:29:53;15.80;67.70
75621;DHT22;64574;48.506;-2.750;2023-10-08T02:32:18;15.60;68.20
75621;DHT22;64574;48.506;-2.750;2023-10-08T02:34:44;15.60;68.40
75621;DHT22;64574;48.506;-2.750;2023-10-08T02:37:10;15.70;68.20
75621;DHT22;64574;48.506;-2.750;2023-10-08T02:39:38;15.80;67.90
75621;DHT22;64574;48.506;-2.750;2023-10-08T02:42:06;15.70;67.90
75621;DHT22;64574;48.506;-2.750;2023-10-08T02:44:36;15.70;68.00
75621;DHT22;64574;48.506;-2.750;2023-10-08T02:47:10;15.70;67.80
75621;DHT22;64574;48.506;-2.750;2023-10-08T02:49:46;15.70;67.90
75621;DHT22;64574;48.506;-2.750;2023-10-08T02:52:14;15.60;67.90
75621;DHT22;64574;48.506;-2.750;2023-10-08T02:54:41;15.80;67.70
75621;DHT22;64574;48.506;-2.750;2023-10-08T02:57:07;15.80;67.20
75621;DHT22;64574;48.506;-2.750;2023-10-08T02:59:40;15.80;67.10
75621;DHT22;64574;48.506;-2.750;2023-10-08T03:02:12;15.90;66.80
75621;DHT22;64574;48.506;-2.750;2023-10-08T03:04:41;15.90;66.80
75621;DHT22;64574;48.506;-2.750;2023-10-08T03:07:07;16.00;66.50
75621;DHT22;64574;48.506;-2.750;2023-10-08T03:09:37;16.00;66.10
75621;DHT22;64574;48.506;-2.750;2023-10-08T03:12:07;16.00;66.10
75621;DHT22;64574;48.506;-2.750;2023-10-08T03:14:35;16.10;65.80
75621;DHT22;64574;48.506;-2.750;2023-10-08T03:17:14;16.10;65.50
75621;DHT22;64574;48.506;-2.750;2023-10-08T03:19:45;16.10;65.30
75621;DHT22;64574;48.506;-2.750;2023-10-08T03:22:11;16.10;65.30
75621;DHT22;64574;48.506;-2.750;2023-10-08T03:24:38;16.10;65.20
75621;DHT22;64574;48.506;-2.750;2023-10-08T03:27:05;16.10;65.30
75621;DHT22;64574;48.506;-2.750;2023-10-08T03:29:35;16.00;65.70
75621;DHT22;64574;48.506;-2.750;2023-10-08T03:32:09;16.00;66.10
75621;DHT22;64574;48.506;-2.750;2023-10-08T03:34:40;15.90;66.50
75621;DHT22;64574;48.506;-2.750;2023-10-08T03:37:09;15.80;66.80
75621;DHT22;64574;48.506;-2.750;2023-10-08T03:39:36;15.80;66.80
75621;DHT22;64574;48.506;-2.750;2023-10-08T03:42:21;15.80;66.80
75621;DHT22;64574;48.506;-2.750;2023-10-08T03:44:51;15.80;67.00
75621;DHT22;64574;48.506;-2.750;2023-10-08T03:47:18;15.70;67.00
75621;DHT22;64574;48.506;-2.750;2023-10-08T03:49:45;15.60;67.20
75621;DHT22;64574;48.506;-2.750;2023-10-08T03:52:11;15.50;67.20
75621;DHT22;64574;48.506;-2.750;2023-10-08T03:54:38;15.40;67.60
75621;DHT22;64574;48.506;-2.750;2023-10-08T03:57:09;15.40;67.60
75621;DHT22;64574;48.506;-2.750;2023-10-08T03:59:50;15.40;67.50
75621;DHT22;64574;48.506;-2.750;2023-10-08T04:02:20;15.30;67.70
75621;DHT22;64574;48.506;-2.750;2023-10-08T04:05:04;15.20;68.00
75621;DHT22;64574;48.506;-2.750;2023-10-08T04:07:43;15.30;67.80
75621;DHT22;64574;48.506;-2.750;2023-10-08T04:10:24;15.20;67.90
75621;DHT22;64574;48.506;-2.750;2023-10-08T04:13:05;15.20;67.60
75621;DHT22;64574;48.506;-2.750;2023-10-08T04:15:37;15.00;67.90
75621;DHT22;64574;48.506;-2.750;2023-10-08T04:18:12;14.90;68.40
75621;DHT22;64574;48.506;-2.750;2023-10-08T04:20:39;15.00;68.10
75621;DHT22;64574;48.506;-2.750;2023-10-08T04:23:09;15.00;68.00
75621;DHT22;64574;48.506;-2.750;2023-10-08T04:25:44;15.00;67.80
75621;DHT22;64574;48.506;-2.750;2023-10-08T04:28:10;14.90;68.00
75621;DHT22;64574;48.506;-2.750;2023-10-08T04:30:46;14.90;68.20
75621;DHT22;64574;48.506;-2.750;2023-10-08T04:33:16;15.00;68.10
75621;DHT22;64574;48.506;-2.750;2023-10-08T04:35:45;14.80;68.00
75621;DHT22;64574;48.506;-2.750;2023-10-08T04:38:18;14.80;68.20
75621;DHT22;64574;48.506;-2.750;2023-10-08T04:40:45;14.80;68.40
75621;DHT22;64574;48.506;-2.750;2023-10-08T04:43:15;14.70;68.30
75621;DHT22;64574;48.506;-2.750;2023-10-08T04:45:41;14.80;68.10
75621;DHT22;64574;48.506;-2.750;2023-10-08T04:48:07;14.90;68.10
75621;DHT22;64574;48.506;-2.750;2023-10-08T04:50:38;14.90;68.20
75621;DHT22;64574;48.506;-2.750;2023-10-08T04:53:04;14.80;67.90
75621;DHT22;64574;48.506;-2.750;2023-10-08T04:55:35;14.70;67.60
75621;DHT22;64574;48.506;-2.750;2023-10-08T04:58:01;14.50;68.80
75621;DHT22;64574;48.506;-2.750;2023-10-08T05:00:30;14.50;68.80
75621;DHT22;64574;48.506;-2.750;2023-10-08T05:03:22;14.50;68.60
75621;DHT22;64574;48.506;-2.750;2023-10-08T05:05:57;14.50;68.50
75621;DHT22;64574;48.506;-2.750;2023-10-08T05:08:32;14.50;68.60
75621;DHT22;64574;48.506;-2.750;2023-10-08T05:11:23;14.50;68.70
75621;DHT22;64574;48.506;-2.750;2023-10-08T05:14:08;14.60;68.20
75621;DHT22;64574;48.506;-2.750;2023-10-08T05:16:55;14.40;68.70
75621;DHT22;64574;48.506;-2.750;2023-10-08T05:19:29;14.50;68.50
75621;DHT22;64574;48.506;-2.750;2023-10-08T05:22:11;14.50;68.30
75621;DHT22;64574;48.506;-2.750;2023-10-08T05:24:58;14.30;68.40
75621;DHT22;64574;48.506;-2.750;2023-10-08T05:27:36;14.30;68.70
75621;DHT22;64574;48.506;-2.750;2023-10-08T05:33:03;14.30;68.60
75621;DHT22;64574;48.506;-2.750;2023-10-08T05:35:40;14.30;68.50
75621;DHT22;64574;48.506;-2.750;2023-10-08T05:38:09;14.30;68.90
75621;DHT22;64574;48.506;-2.750;2023-10-08T05:41:01;14.40;68.80
75621;DHT22;64574;48.506;-2.750;2023-10-08T05:43:32;14.40;68.80
75621;DHT22;64574;48.506;-2.750;2023-10-08T05:46:11;14.20;68.50
75621;DHT22;64574;48.506;-2.750;2023-10-08T05:48:59;14.20;68.60
75621;DHT22;64574;48.506;-2.750;2023-10-08T05:51:32;14.20;69.00
75621;DHT22;64574;48.506;-2.750;2023-10-08T05:54:22;14.30;69.30
75621;DHT22;64574;48.506;-2.750;2023-10-08T05:56:58;14.30;68.70
75621;DHT22;64574;48.506;-2.750;2023-10-08T06:04:53;14.10;69.10
75621;DHT22;64574;48.506;-2.750;2023-10-08T06:07:36;14.10;69.30
75621;DHT22;64574;48.506;-2.750;2023-10-08T06:10:14;14.10;69.20
75621;DHT22;64574;48.506;-2.750;2023-10-08T06:13:04;14.10;69.20
75621;DHT22;64574;48.506;-2.750;2023-10-08T06:15:45;13.90;69.30
75621;DHT22;64574;48.506;-2.750;2023-10-08T06:18:25;13.90;69.90
75621;DHT22;64574;48.506;-2.750;2023-10-08T06:23:24;13.90;69.10
75621;DHT22;64574;48.506;-2.750;2023-10-08T06:25:52;13.80;69.40
75621;DHT22;64574;48.506;-2.750;2023-10-08T06:28:31;13.90;69.20
75621;DHT22;64574;48.506;-2.750;2023-10-08T06:31:00;13.90;69.10
75621;DHT22;64574;48.506;-2.750;2023-10-08T06:33:27;13.90;68.70
75621;DHT22;64574;48.506;-2.750;2023-10-08T06:35:59;13.60;69.20
75621;DHT22;64574;48.506;-2.750;2023-10-08T06:38:29;13.50;69.30
75621;DHT22;64574;48.506;-2.750;2023-10-08T06:40:58;13.50;69.20
75621;DHT22;64574;48.506;-2.750;2023-10-08T06:43:48;13.30;69.90
75621;DHT22;64574;48.506;-2.750;2023-10-08T06:46:39;13.40;69.80
75621;DHT22;64574;48.506;-2.750;2023-10-08T06:49:07;13.50;69.50
75621;DHT22;64574;48.506;-2.750;2023-10-08T06:51:37;13.70;68.80
75621;DHT22;64574;48.506;-2.750;2023-10-08T06:54:03;13.70;68.60
75621;DHT22;64574;48.506;-2.750;2023-10-08T06:56:35;13.70;68.50
75621;DHT22;64574;48.506;-2.750;2023-10-08T06:59:00;13.70;68.70
75621;DHT22;64574;48.506;-2.750;2023-10-08T07:01:27;13.70;68.70
75621;DHT22;64574;48.506;-2.750;2023-10-08T07:04:04;13.90;68.20
75621;DHT22;64574;48.506;-2.750;2023-10-08T07:06:32;13.90;68.10
75621;DHT22;64574;48.506;-2.750;2023-10-08T07:09:00;13.90;68.10
75621;DHT22;64574;48.506;-2.750;2023-10-08T07:11:33;13.90;68.10
75621;DHT22;64574;48.506;-2.750;2023-10-08T07:14:03;14.00;67.80
75621;DHT22;64574;48.506;-2.750;2023-10-08T07:16:30;14.00;67.90
75621;DHT22;64574;48.506;-2.750;2023-10-08T07:18:56;14.10;67.50
75621;DHT22;64574;48.506;-2.750;2023-10-08T07:21:27;14.20;67.10
75621;DHT22;64574;48.506;-2.750;2023-10-08T07:24:13;14.10;67.20
75621;DHT22;64574;48.506;-2.750;2023-10-08T07:26:43;13.90;67.80
75621;DHT22;64574;48.506;-2.750;2023-10-08T07:29:16;14.00;67.80
75621;DHT22;64574;48.506;-2.750;2023-10-08T07:31:46;13.90;68.00
75621;DHT22;64574;48.506;-2.750;2023-10-08T07:34:17;14.00;67.80
75621;DHT22;64574;48.506;-2.750;2023-10-08T07:36:46;14.20;67.80
75621;DHT22;64574;48.506;-2.750;2023-10-08T07:39:16;14.10;67.80
75621;DHT22;64574;48.506;-2.750;2023-10-08T07:41:59;14.10;68.00
75621;DHT22;64574;48.506;-2.750;2023-10-08T07:44:26;14.30;67.80
75621;DHT22;64574;48.506;-2.750;2023-10-08T07:46:55;14.30;67.60
75621;DHT22;64574;48.506;-2.750;2023-10-08T07:49:22;14.50;67.30
75621;DHT22;64574;48.506;-2.750;2023-10-08T07:51:48;14.60;67.40
75621;DHT22;64574;48.506;-2.750;2023-10-08T07:54:21;14.70;67.20
75621;DHT22;64574;48.506;-2.750;2023-10-08T07:56:49;14.70;66.90
75621;DHT22;64574;48.506;-2.750;2023-10-08T07:59:17;14.90;67.00
75621;DHT22;64574;48.506;-2.750;2023-10-08T08:01:43;14.80;67.30
75621;DHT22;64574;48.506;-2.750;2023-10-08T08:04:12;14.90;67.80
75621;DHT22;64574;48.506;-2.750;2023-10-08T08:06:51;14.90;67.40
75621;DHT22;64574;48.506;-2.750;2023-10-08T08:09:19;15.00;67.50
75621;DHT22;64574;48.506;-2.750;2023-10-08T08:11:48;15.00;67.80
75621;DHT22;64574;48.506;-2.750;2023-10-08T08:14:17;15.00;67.50
75621;DHT22;64574;48.506;-2.750;2023-10-08T08:16:43;15.10;67.30
75621;DHT22;64574;48.506;-2.750;2023-10-08T08:19:14;15.20;67.00
75621;DHT22;64574;48.506;-2.750;2023-10-08T08:21:42;15.10;67.30
75621;DHT22;64574;48.506;-2.750;2023-10-08T08:24:11;15.20;67.10
75621;DHT22;64574;48.506;-2.750;2023-10-08T08:26:37;15.20;67.00
75621;DHT22;64574;48.506;-2.750;2023-10-08T08:29:26;15.30;67.00
75621;DHT22;64574;48.506;-2.750;2023-10-08T08:31:52;15.30;66.80
75621;DHT22;64574;48.506;-2.750;2023-10-08T08:34:18;15.40;66.60
75621;DHT22;64574;48.506;-2.750;2023-10-08T08:36:47;15.50;66.40
75621;DHT22;64574;48.506;-2.750;2023-10-08T08:39:15;15.50;66.10
75621;DHT22;64574;48.506;-2.750;2023-10-08T08:42:01;15.50;65.80
75621;DHT22;64574;48.506;-2.750;2023-10-08T08:44:31;15.60;65.40
75621;DHT22;64574;48.506;-2.750;2023-10-08T08:46:58;15.60;65.50
75621;DHT22;64574;48.506;-2.750;2023-10-08T08:49:25;15.70;65.30
75621;DHT22;64574;48.506;-2.750;2023-10-08T08:51:54;15.70;64.90
75621;DHT22;64574;48.506;-2.750;2023-10-08T08:54:22;15.80;64.60
75621;DHT22;64574;48.506;-2.750;2023-10-08T08:56:50;15.80;64.40
75621;DHT22;64574;48.506;-2.750;2023-10-08T08:59:16;15.80;64.70
75621;DHT22;64574;48.506;-2.750;2023-10-08T09:01:43;15.80;64.60
75621;DHT22;64574;48.506;-2.750;2023-10-08T09:04:10;15.80;64.70
75621;DHT22;64574;48.506;-2.750;2023-10-08T09:06:37;15.90;64.80
75621;DHT22;64574;48.506;-2.750;2023-10-08T09:09:07;16.00;64.60
75621;DHT22;64574;48.506;-2.750;2023-10-08T09:11:49;16.00;64.30
75621;DHT22;64574;48.506;-2.750;2023-10-08T09:14:20;16.00;64.40
75621;DHT22;64574;48.506;-2.750;2023-10-08T09:16:47;16.10;64.20
75621;DHT22;64574;48.506;-2.750;2023-10-08T09:19:13;16.20;64.40
75621;DHT22;64574;48.506;-2.750;2023-10-08T09:21:59;16.20;64.10
75621;DHT22;64574;48.506;-2.750;2023-10-08T09:24:25;16.40;63.70
75621;DHT22;64574;48.506;-2.750;2023-10-08T09:26:52;16.40;63.50
75621;DHT22;64574;48.506;-2.750;2023-10-08T09:29:22;16.50;62.90
75621;DHT22;64574;48.506;-2.750;2023-10-08T09:31:58;16.60;62.50
75621;DHT22;64574;48.506;-2.750;2023-10-08T09:34:30;16.50;62.50
75621;DHT22;64574;48.506;-2.750;2023-10-08T09:36:57;16.60;61.70
75621;DHT22;64574;48.506;-2.750;2023-10-08T09:39:26;16.70;61.40
75621;DHT22;64574;48.506;-2.750;2023-10-08T09:41:55;16.70;61.10
75621;DHT22;64574;48.506;-2.750;2023-10-08T09:44:22;16.70;60.50
75621;DHT22;64574;48.506;-2.750;2023-10-08T09:46:53;16.90;60.00
75621;DHT22;64574;48.506;-2.750;2023-10-08T09:49:30;16.90;59.20
75621;DHT22;64574;48.506;-2.750;2023-10-08T09:52:03;16.90;58.80
75621;DHT22;64574;48.506;-2.750;2023-10-08T09:54:44;17.00;58.90
75621;DHT22;64574;48.506;-2.750;2023-10-08T09:57:14;17.00;58.90
75621;DHT22;64574;48.506;-2.750;2023-10-08T09:59:45;17.20;59.00
75621;DHT22;64574;48.506;-2.750;2023-10-08T10:02:11;17.20;59.00
75621;DHT22;64574;48.506;-2.750;2023-10-08T10:04:45;17.20;59.40
75621;DHT22;64574;48.506;-2.750;2023-10-08T10:07:12;17.20;59.20
75621;DHT22;64574;48.506;-2.750;2023-10-08T10:09:43;17.20;59.00
75621;DHT22;64574;48.506;-2.750;2023-10-08T10:12:11;17.30;59.10
75621;DHT22;64574;48.506;-2.750;2023-10-08T10:14:47;17.40;59.00
75621;DHT22;64574;48.506;-2.750;2023-10-08T10:17:20;17.40;59.10
75621;DHT22;64574;48.506;-2.750;2023-10-08T10:20:00;17.40;58.50
75621;DHT22;64574;48.506;-2.750;2023-10-08T10:22:31;17.40;58.10
75621;DHT22;64574;48.506;-2.750;2023-10-08T10:25:02;17.50;57.50
75621;DHT22;64574;48.506;-2.750;2023-10-08T10:30:34;17.60;56.80
75621;DHT22;64574;48.506;-2.750;2023-10-08T10:33:02;17.60;56.90
75621;DHT22;64574;48.506;-2.750;2023-10-08T10:35:31;17.60;56.60
75621;DHT22;64574;48.506;-2.750;2023-10-08T10:37:58;17.60;56.40
75621;DHT22;64574;48.506;-2.750;2023-10-08T10:40:29;17.60;56.40
75621;DHT22;64574;48.506;-2.750;2023-10-08T10:43:05;17.80;56.30
75621;DHT22;64574;48.506;-2.750;2023-10-08T10:45:41;18.00;56.40
75621;DHT22;64574;48.506;-2.750;2023-10-08T10:48:13;18.00;56.70
75621;DHT22;64574;48.506;-2.750;2023-10-08T10:50:41;18.00;56.50
75621;DHT22;64574;48.506;-2.750;2023-10-08T10:53:25;18.00;56.20
75621;DHT22;64574;48.506;-2.750;2023-10-08T10:55:53;18.00;56.10
75621;DHT22;64574;48.506;-2.750;2023-10-08T10:58:30;18.00;55.80
75621;DHT22;64574;48.506;-2.750;2023-10-08T11:01:04;18.00;53.70
75621;DHT22;64574;48.506;-2.750;2023-10-08T11:03:51;18.10;54.30
75621;DHT22;64574;48.506;-2.750;2023-10-08T11:06:19;18.00;54.20
75621;DHT22;64574;48.506;-2.750;2023-10-08T11:08:57;18.10;54.00
75621;DHT22;64574;48.506;-2.750;2023-10-08T11:11:26;18.20;54.50
75621;DHT22;64574;48.506;-2.750;2023-10-08T11:13:57;18.10;53.70
75621;DHT22;64574;48.506;-2.750;2023-10-08T11:16:26;18.10;53.50
75621;DHT22;64574;48.506;-2.750;2023-10-08T11:18:53;18.20;52.60
75621;DHT22;64574;48.506;-2.750;2023-10-08T11:21:23;18.30;51.60
75621;DHT22;64574;48.506;-2.750;2023-10-08T11:23:51;18.40;51.20
75621;DHT22;64574;48.506;-2.750;2023-10-08T11:26:26;18.30;50.50
75621;DHT22;64574;48.506;-2.750;2023-10-08T11:28:58;18.40;50.60
75621;DHT22;64574;48.506;-2.750;2023-10-08T11:31:27;18.40;50.50
75621;DHT22;64574;48.506;-2.750;2023-10-08T11:33:59;18.40;50.30
75621;DHT22;64574;48.506;-2.750;2023-10-08T11:36:27;18.50;50.20
75621;DHT22;64574;48.506;-2.750;2023-10-08T11:38:57;18.50;50.50
75621;DHT22;64574;48.506;-2.750;2023-10-08T11:41:26;18.60;50.70
75621;DHT22;64574;48.506;-2.750;2023-10-08T11:43:57;18.70;51.20
75621;DHT22;64574;48.506;-2.750;2023-10-08T11:46:31;18.60;50.70
75621;DHT22;64574;48.506;-2.750;2023-10-08T11:49:04;18.80;50.00
75621;DHT22;64574;48.506;-2.750;2023-10-08T11:51:32;18.70;50.20
75621;DHT22;64574;48.506;-2.750;2023-10-08T11:53:59;18.90;49.20
75621;DHT22;64574;48.506;-2.750;2023-10-08T11:56:26;18.80;49.30
75621;DHT22;64574;48.506;-2.750;2023-10-08T11:58:53;18.90;49.00
75621;DHT22;64574;48.506;-2.750;2023-10-08T12:01:24;18.90;49.30
75621;DHT22;64574;48.506;-2.750;2023-10-08T12:03:55;18.80;49.30
75621;DHT22;64574;48.506;-2.750;2023-10-08T12:06:25;18.90;49.10
75621;DHT22;64574;48.506;-2.750;2023-10-08T12:08:55;18.90;49.20
75621;DHT22;64574;48.506;-2.750;2023-10-08T12:11:24;18.90;49.30
75621;DHT22;64574;48.506;-2.750;2023-10-08T12:13:57;18.90;49.10
75621;DHT22;64574;48.506;-2.750;2023-10-08T12:16:25;18.90;49.10
75621;DHT22;64574;48.506;-2.750;2023-10-08T12:18:55;19.00;48.50
75621;DHT22;64574;48.506;-2.750;2023-10-08T12:21:29;19.00;48.70
75621;DHT22;64574;48.506;-2.750;2023-10-08T12:23:59;19.00;48.90
75621;DHT22;64574;48.506;-2.750;2023-10-08T12:26:26;19.20;49.20
75621;DHT22;64574;48.506;-2.750;2023-10-08T12:28:52;19.30;49.10
75621;DHT22;64574;48.506;-2.750;2023-10-08T12:31:20;19.40;48.60
75621;DHT22;64574;48.506;-2.750;2023-10-08T12:33:52;19.70;47.90
75621;DHT22;64574;48.506;-2.750;2023-10-08T12:36:22;19.80;50.80
75621;DHT22;64574;48.506;-2.750;2023-10-08T12:38:49;19.70;52.60
75621;DHT22;64574;48.506;-2.750;2023-10-08T12:41:14;19.70;54.70
75621;DHT22;64574;48.506;-2.750;2023-10-08T12:43:45;19.70;56.00
75621;DHT22;64574;48.506;-2.750;2023-10-08T12:46:14;19.80;56.00
75621;DHT22;64574;48.506;-2.750;2023-10-08T12:48:50;19.90;55.20
75621;DHT22;64574;48.506;-2.750;2023-10-08T12:51:19;19.90;55.90
75621;DHT22;64574;48.506;-2.750;2023-10-08T12:53:52;20.10;57.00
75621;DHT22;64574;48.506;-2.750;2023-10-08T12:56:25;19.90;57.40
75621;DHT22;64574;48.506;-2.750;2023-10-08T12:58:59;19.90;57.50
75621;DHT22;64574;48.506;-2.750;2023-10-08T13:01:27;19.90;58.20
75621;DHT22;64574;48.506;-2.750;2023-10-08T13:03:55;19.90;57.50
75621;DHT22;64574;48.506;-2.750;2023-10-08T13:06:27;19.80;58.60
75621;DHT22;64574;48.506;-2.750;2023-10-08T13:08:56;19.80;60.50
75621;DHT22;64574;48.506;-2.750;2023-10-08T13:11:25;19.70;61.50
75621;DHT22;64574;48.506;-2.750;2023-10-08T13:13:55;19.70;61.40
75621;DHT22;64574;48.506;-2.750;2023-10-08T13:16:22;19.60;60.60
75621;DHT22;64574;48.506;-2.750;2023-10-08T13:18:49;19.70;61.10
75621;DHT22;64574;48.506;-2.750;2023-10-08T13:21:14;19.70;61.90
75621;DHT22;64574;48.506;-2.750;2023-10-08T13:23:41;19.80;60.90
75621;DHT22;64574;48.506;-2.750;2023-10-08T13:26:07;19.80;60.20
75621;DHT22;64574;48.506;-2.750;2023-10-08T13:28:34;19.90;59.30
75621;DHT22;64574;48.506;-2.750;2023-10-08T13:31:02;19.90;59.00
75621;DHT22;64574;48.506;-2.750;2023-10-08T13:33:36;20.00;58.50
75621;DHT22;64574;48.506;-2.750;2023-10-08T13:36:05;20.00;58.30
75621;DHT22;64574;48.506;-2.750;2023-10-08T13:38:34;20.10;57.50
75621;DHT22;64574;48.506;-2.750;2023-10-08T13:41:00;20.00;58.30
75621;DHT22;64574;48.506;-2.750;2023-10-08T13:43:34;20.00;59.40
75621;DHT22;64574;48.506;-2.750;2023-10-08T13:46:05;20.00;59.90
75621;DHT22;64574;48.506;-2.750;2023-10-08T13:48:33;20.00;60.90
75621;DHT22;64574;48.506;-2.750;2023-10-08T13:51:01;20.10;62.30
75621;DHT22;64574;48.506;-2.750;2023-10-08T13:53:32;20.00;62.50
75621;DHT22;64574;48.506;-2.750;2023-10-08T13:56:01;20.10;61.30
75621;DHT22;64574;48.506;-2.750;2023-10-08T13:58:33;20.00;60.90
75621;DHT22;64574;48.506;-2.750;2023-10-08T14:01:06;20.20;58.80
75621;DHT22;64574;48.506;-2.750;2023-10-08T14:03:53;20.30;57.50
75621;DHT22;64574;48.506;-2.750;2023-10-08T14:06:22;20.40;56.40
75621;DHT22;64574;48.506;-2.750;2023-10-08T14:08:48;20.30;56.60
75621;DHT22;64574;48.506;-2.750;2023-10-08T14:11:23;20.30;55.90
75621;DHT22;64574;48.506;-2.750;2023-10-08T14:13:58;20.30;56.20
75621;DHT22;64574;48.506;-2.750;2023-10-08T14:16:37;20.30;56.30
75621;DHT22;64574;48.506;-2.750;2023-10-08T14:19:02;20.30;55.20
75621;DHT22;64574;48.506;-2.750;2023-10-08T14:21:31;20.10;55.10
75621;DHT22;64574;48.506;-2.750;2023-10-08T14:24:02;20.10;55.20
75621;DHT22;64574;48.506;-2.750;2023-10-08T14:26:31;20.30;55.50
75621;DHT22;64574;48.506;-2.750;2023-10-08T14:29:03;20.30;56.10
75621;DHT22;64574;48.506;-2.750;2023-10-08T14:31:49;20.30;56.30
75621;DHT22;64574;48.506;-2.750;2023-10-08T14:34:16;20.50;56.00
75621;DHT22;64574;48.506;-2.750;2023-10-08T14:36:45;20.50;56.50
75621;DHT22;64574;48.506;-2.750;2023-10-08T14:39:31;20.40;57.30
75621;DHT22;64574;48.506;-2.750;2023-10-08T14:42:16;20.50;58.00
75621;DHT22;64574;48.506;-2.750;2023-10-08T14:45:00;20.50;60.50
75621;DHT22;64574;48.506;-2.750;2023-10-08T14:47:29;20.60;62.90
75621;DHT22;64574;48.506;-2.750;2023-10-08T14:49:55;20.60;63.90
75621;DHT22;64574;48.506;-2.750;2023-10-08T14:52:22;20.50;63.50
75621;DHT22;64574;48.506;-2.750;2023-10-08T14:54:49;20.50;62.50
75621;DHT22;64574;48.506;-2.750;2023-10-08T14:57:17;20.50;61.60
75621;DHT22;64574;48.506;-2.750;2023-10-08T14:59:44;20.60;61.00
75621;DHT22;64574;48.506;-2.750;2023-10-08T15:02:09;20.60;59.90
75621;DHT22;64574;48.506;-2.750;2023-10-08T15:04:37;20.50;58.60
75621;DHT22;64574;48.506;-2.750;2023-10-08T15:07:07;20.60;56.60
75621;DHT22;64574;48.506;-2.750;2023-10-08T15:09:37;20.60;56.60
75621;DHT22;64574;48.506;-2.750;2023-10-08T15:12:05;20.50;56.40
75621;DHT22;64574;48.506;-2.750;2023-10-08T15:14:32;20.60;55.80
75621;DHT22;64574;48.506;-2.750;2023-10-08T15:16:58;20.70;55.80
75621;DHT22;64574;48.506;-2.750;2023-10-08T15:19:24;20.70;56.70
75621;DHT22;64574;48.506;-2.750;2023-10-08T15:21:50;20.70;56.60
75621;DHT22;64574;48.506;-2.750;2023-10-08T15:24:18;20.70;56.40
75621;DHT22;64574;48.506;-2.750;2023-10-08T15:26:44;20.70;56.80
75621;DHT22;64574;48.506;-2.750;2023-10-08T15:29:13;20.70;56.90
75621;DHT22;64574;48.506;-2.750;2023-10-08T15:31:39;20.70;56.70
75621;DHT22;64574;48.506;-2.750;2023-10-08T15:34:06;20.60;56.20
75621;DHT22;64574;48.506;-2.750;2023-10-08T15:36:31;20.80;55.50
75621;DHT22;64574;48.506;-2.750;2023-10-08T15:38:58;20.80;55.10
75621;DHT22;64574;48.506;-2.750;2023-10-08T15:41:24;20.70;55.30
75621;DHT22;64574;48.506;-2.750;2023-10-08T15:43:52;20.70;54.80
75621;DHT22;64574;48.506;-2.750;2023-10-08T15:46:24;20.70;54.70
75621;DHT22;64574;48.506;-2.750;2023-10-08T15:48:52;20.80;53.70
75621;DHT22;64574;48.506;-2.750;2023-10-08T15:51:17;20.80;54.20
75621;DHT22;64574;48.506;-2.750;2023-10-08T15:53:43;20.70;54.60
75621;DHT22;64574;48.506;-2.750;2023-10-08T15:56:08;20.70;54.50